Nearby METAR Reports

 

KIAG - Niagara Falls, New York, USA
Distance from station: W 12mi, 20km
Updated: 07/16/2018 5:53am
Mostly cloudy
Mostly cloudy
 Wind from S
Wind: S 3 mph , 6 km/h
Temperature: 59°F , 15°C
Dew Point: 48°F , 9°C
Humidity: 68%
Barometer: 1014.2 hPa
Clouds: Mostly cloudy
Visibility: 8 miles , 13 km
Cloud details: Mostly cloudy 10000 ft
2018/07/16 09:53 KIAG 160953Z AUTO 18003KT 8SM BKN100 15/09 A2995 RMK AO2 SLP137 T01500089 $
KBUF - Buffalo/Cheektow, New York, USA
Distance from station: S 13mi, 21km
Updated: 07/16/2018 5:54am
Few Clouds
Few Clouds
 Wind from calm
Wind: Calm
Temperature: 70°F , 21°C
Dew Point: 64°F , 18°C
Humidity: 83%
Barometer: 1014.9 hPa
Clouds: Few Clouds
Visibility: 10 miles , 16 km
Cloud details: Few Clouds 10000 ft
2018/07/16 09:54 KBUF 160954Z 00000KT 10SM FEW100 21/18 A2997 RMK AO2 SLP143 T02110183 $
 
KROC - Rochester, New York, USA
Distance from station: E 51mi, 82km
Updated: 07/16/2018 5:54am
Mist, Mostly cloudy
Mist, Mostly cloudy
 Wind from SW
Wind: SW 6 mph , 9 km/h
Temperature: 70°F , 21°C
Dew Point: 68°F , 20°C
Humidity: 94%
Barometer: 1014.6 hPa
Summary: Mist
Clouds: Mostly cloudy
Visibility: 6 miles , 10 km
Cloud details: Few Clouds 3000 ft
Few Clouds 10000 ft
Mostly cloudy 25000 ft
2018/07/16 09:54 KROC 160954Z 23005KT 6SM BR FEW030 FEW100 BKN250 21/20 A2996 RMK AO2 SLP145 T02110200 $
CYSN - St. Catharines A, Ontario, Canada
Distance from station: WNW 25mi, 40km
Updated: 07/15/2018 9:00pm
NOT Current
Mostly cloudy
Mostly cloudy
 Wind from SE
Wind: SE 3 mph , 6 km/h
Temperature: 79°F , 26°C
Dew Point: 68°F , 20°C
Humidity: 70%
Barometer: 1013.2 hPa
Clouds: Mostly cloudy
Visibility: 15 miles , 24 km
Cloud details: Few Clouds 4000 ft
Mostly cloudy 25000 ft
2018/07/16 01:00 CYSN 160100Z 14003KT 15SM FEW040 BKN250 26/20 A2992 RMK SC1CI6 LAST STFD OBS/NEXT 16 1100UTC SLP133 DENSITY ALT 1700FT
 
KOLE - Olean, New York, USA
Distance from station: SSE 63mi, 102km
Updated: 07/16/2018 6:35am
Mist, Clear
Mist, Clear
 Wind from SW
Wind: SW 3 mph , 6 km/h
Temperature: 64°F , 18°C
Dew Point: 64°F , 18°C
Humidity: 100%
Barometer: 1017.6 hPa
Summary: Mist
Clouds: Clear
Visibility: 4 miles , 6 km
2018/07/16 10:35 KOLE 161035Z AUTO 22003KT 4SM BR CLR 18/18 A3005 RMK AO2
KJHW - Jamestown, New York, USA
Distance from station: SSW 74mi, 119km
Updated: 07/16/2018 6:34am
Fog, Overcast
Fog, Overcast
 Wind from S
Wind: S 5 mph , 7 km/h
Temperature: 66°F , 19°C
Dew Point: 66°F , 19°C
Humidity: 100%
Barometer: 1017.3 hPa
Summary: Fog
Clouds: Overcast
Visibility: less than 1/4 mile , 2 km
Cloud details: Mostly cloudy 200 ft
Overcast 6500 ft
2018/07/16 10:34 KJHW 161034Z AUTO 18004KT M1/4SM FG BKN002 OVC065 19/19 A3004 RMK AO2 CIG 001V004 RVRNO
 
CWWZ - Port Weller (mar, Ontario, Canada
Distance from station: WNW 28mi, 45km
Updated: 07/16/2018 6:00am

 Wind from S
Wind: S 5 mph , 7 km/h
Temperature: 73°F , 23°C
Dew Point: 70°F , 21°C
Humidity: 89%
2018/07/16 10:00 CWWZ 161000Z AUTO 19004KT 23/21 RMK AO1 SLP134 T02280212 56003
CWPC - Port Colborne(Au, Ontario, Canada
Distance from station: WSW 33mi, 53km
Updated: 07/16/2018 6:00am

 Wind from S
Wind: S 5 mph , 7 km/h
Temperature: 75°F , 24°C
Dew Point: 72°F , 22°C
Humidity: 89%
2018/07/16 10:00 CWPC 161000Z AUTO 18004KT 24/22 RMK AO1 SLP142 T02370219 56003
 
CXVN - Vineland (au8), Ontario, Canada
Distance from station: W 36mi, 58km
Updated: 07/16/2018 6:00am

 Wind from S
Wind: S 5 mph , 7 km/h
Temperature: 73°F , 23°C
Dew Point: 70°F , 21°C
Humidity: 89%
2018/07/16 10:00 CXVN 161000Z AUTO 18004KT 23/21 RMK AO1 SLP125 T02250210 57004
CYTZ - Toronto Il Vor, Ontario, Canada
Distance from station: NW 50mi, 81km
Updated: 07/16/2018 6:14am
Mist, Overcast
Mist, Overcast
 Wind from ENE
Wind: ENE 5 mph , 7 km/h
Temperature: 72°F , 22°C
Dew Point: 72°F , 22°C
Humidity: 100%
Barometer: 1013.5 hPa
Summary: Mist
Clouds: Overcast
Visibility: 1 1/4 miles , 2 km
Cloud details: Partly cloudy 200 ft
Overcast 7000 ft
2018/07/16 10:14 CYTZ 161014Z AUTO 07004KT 1 1/4SM BR SCT002 OVC070 22/22 A2993 RMK SLP135 DENSITY ALT 1100FT
 
CXTO - Toronto City, Ontario, Canada
Distance from station: NW 52mi, 84km
Updated: 07/11/2018 8:00am
NOT Current

 
Temperature: 70°F , 21°C
Dew Point: 50°F , 10°C
Humidity: 50%
2018/07/11 12:00 CXTO 111200Z AUTO 21/10 RMK AO1 SLP196 T02090102 53014
KDKK - Dunkirk, New York, USA
Distance from station: SW 52mi, 84km
Updated: 07/16/2018 5:53am
Clear
Clear
 Wind from SSW
Wind: SSW 6 mph , 9 km/h
Temperature: 68°F , 20°C
Dew Point: 64°F , 18°C
Humidity: 88%
Barometer: 1014.9 hPa
Clouds: Clear
Visibility: 9 miles , 14 km
2018/07/16 09:53 KDKK 160953Z AUTO 21005KT 9SM CLR 20/18 A2997 RMK AO2 SLP144 T02000183 $
 
CYOO - Oshawa, Ontario, Canada
Distance from station: N 56mi, 90km
Updated: 07/16/2018 6:00am
Clear
Clear
 Wind from varies
Wind: varies 3 mph , 6 km/h
Temperature: 66°F , 19°C
Dew Point: 63°F , 17°C
Humidity: 88%
Barometer: 1013.5 hPa
Clouds: Clear
Visibility: 9 miles , 14 km
2018/07/16 10:00 CYOO 161000Z AUTO VRB03KT 9SM CLR 19/17 A2993 RMK SLP136 DENSITY ALT 1000FT
CWWB - Burlington Piers, Ontario, Canada
Distance from station: WNW 56mi, 91km
Updated: 07/16/2018 6:00am

 Wind from WSW
Wind: WSW 3 mph , 6 km/h
Temperature: 75°F , 24°C
Dew Point: 70°F , 21°C
Humidity: 83%
2018/07/16 10:00 CWWB 161000Z AUTO 25003KT 24/21 RMK AO1 SLP131 T02390211 55001
 
CYYZ - Toronto/Pearson, Ontario, Canada
Distance from station: NW 60mi, 96km
Updated: 07/16/2018 6:00am
Mostly cloudy
Mostly cloudy
 Wind from S
Wind: S 3 mph , 6 km/h
Temperature: 73°F , 23°C
Dew Point: 70°F , 21°C
Humidity: 89%
Barometer: 1013.5 hPa
Clouds: Mostly cloudy
Visibility: 8 miles , 13 km
Cloud details: Few Clouds 6200 ft
Partly cloudy 8000 ft
Mostly cloudy 26000 ft
2018/07/16 10:00 CYYZ 161000Z 17003KT 8SM FEW062 SCT080 BKN260 23/21 A2993 RMK SC2AC2CI2 SLP135 DENSITY ALT 1700FT
CYKZ - Toronto Buttonvi, Ontario, Canada
Distance from station: NW 62mi, 99km
Updated: 07/16/2018 6:00am
Mostly cloudy
Mostly cloudy
 Wind from NNE
Wind: NNE 2 mph , 4 km/h
Temperature: 68°F , 20°C
Dew Point: 64°F , 18°C
Humidity: 88%
Barometer: 1013.9 hPa
Clouds: Mostly cloudy
Visibility: 7 miles , 11 km
Cloud details: Mostly cloudy 5300 ft
Mostly cloudy 24000 ft
2018/07/16 10:00 CYKZ 161000Z 02002KT 7SM BKN053 BKN240 20/18 A2994 RMK SC5CI2 SLP137 DENSITY ALT 1400FT
 
CXHM - Hamilton Rbg Cs, Ontario, Canada
Distance from station: W 62mi, 100km
Updated: 07/16/2018 6:00am

 Wind from calm
Wind: Calm
Temperature: 68°F , 20°C
Dew Point: 66°F , 19°C
Humidity: 94%
2018/07/16 10:00 CXHM 161000Z AUTO 00000KT 20/19 RMK AO1 SLP128 T02000192 50000
KDSV - Dansville, New York, USA
Distance from station: SE 62mi, 100km
Updated: 07/16/2018 5:54am
Few Clouds
Few Clouds
 Wind from SE
Wind: SE 7 mph , 11 km/h
Temperature: 70°F , 21°C
Dew Point: 64°F , 18°C
Humidity: 83%
Barometer: 1015.6 hPa
Clouds: Few Clouds
Visibility: 9 miles , 14 km
Cloud details: Few Clouds 5000 ft
2018/07/16 09:54 KDSV 160954Z AUTO 14006KT 9SM FEW050 21/18 A2999 RMK AO2 SLP160 T02060183 TSNO
 
CYHM - Hamilton Airport, Ontario, Canada
Distance from station: W 63mi, 101km
Updated: 07/16/2018 6:00am
Partly cloudy
Partly cloudy
 Wind from SW
Wind: SW 2 mph , 4 km/h
Temperature: 68°F , 20°C
Dew Point: 68°F , 20°C
Humidity: 100%
Barometer: 1014.2 hPa
Clouds: Partly cloudy
Visibility: 11 miles , 18 km
Cloud details: Few Clouds 6000 ft
Partly cloudy 26000 ft
2018/07/16 10:00 CYHM 161000Z 22002KT 11SM FEW060 SCT260 20/20 A2995 RMK SC1CI3 SC TR VIS VRB 8 - 14 DIST MIFG AND DIST BR SLP141 DENSITY ALT 1600FT
CWNC - Cobourg (mars), Ontario, Canada
Distance from station: NNE 63mi, 102km
Updated: 07/16/2018 6:00am

 Wind from NE
Wind: NE 2 mph , 4 km/h
Temperature: 66°F , 19°C
Dew Point: 64°F , 18°C
Humidity: 94%
2018/07/16 10:00 CWNC 161000Z AUTO 05002KT 19/18 RMK AO1 SLP132 T01940175 56002